Time;durP1;ratioP1;P1;durP2;ratioP2;P2;SDS_P1;SDS_P2;PMS_P1;PMS_P2;Temp;Humidity;BMP_temperature;BMP_pressure;BME280_temperature;BME280_humidity;BME280_pressure;Samples;Min_cycle;Max_cycle;Signal;HPM_P1;HPM_P2
2022/04/02 00:02:16;;;;;;;4.00;1.05;;;;;;;8.05;100.00;91486.03;4983147;28;20100;-83
2022/04/02 00:04:42;;;;;;;3.50;0.70;;;;;;;8.32;100.00;91533.19;4981861;28;20051;-83
2022/04/02 00:07:09;;;;;;;1.73;0.75;;;;;;;8.16;100.00;91513.28;4981961;28;20133;-83
2022/04/02 00:09:36;;;;;;;3.45;0.90;;;;;;;8.21;100.00;91537.38;4983217;28;20042;-82
2022/04/02 00:12:04;;;;;;;3.15;1.00;;;;;;;7.95;100.00;91503.78;4981720;28;20058;-82
2022/04/02 00:14:31;;;;;;;2.30;0.77;;;;;;;7.96;100.00;91516.34;4982176;28;20510;-83
2022/04/02 00:16:59;;;;;;;2.17;1.02;;;;;;;7.96;100.00;91528.38;4983665;28;20042;-83
2022/04/02 00:19:26;;;;;;;2.67;0.85;;;;;;;8.04;100.00;91529.75;4982544;28;20055;-83
2022/04/02 00:21:53;;;;;;;2.20;0.70;;;;;;;7.92;100.00;91515.25;4981558;28;20550;-83
2022/04/02 00:24:20;;;;;;;2.35;0.70;;;;;;;7.71;100.00;91502.22;4983677;28;20042;-83
2022/04/02 00:26:47;;;;;;;3.92;1.02;;;;;;;8.12;100.00;91565.16;4981577;28;20130;-83
2022/04/02 00:29:14;;;;;;;2.17;1.00;;;;;;;7.44;100.00;91474.75;4981266;28;20057;-83
2022/04/02 00:31:41;;;;;;;1.70;0.70;;;;;;;7.69;100.00;91506.78;4983883;28;20077;-83
2022/04/02 00:34:10;;;;;;;3.17;0.95;;;;;;;7.85;100.00;91524.88;4983916;28;20210;-83
2022/04/02 00:36:38;;;;;;;1.55;0.70;;;;;;;8.11;100.00;91569.47;4982676;28;20046;-83
2022/04/02 00:39:07;;;;;;;3.25;0.70;;;;;;;7.49;100.00;91474.81;4978825;28;20054;-83
2022/04/02 00:41:34;;;;;;;6.07;1.63;;;;;;;7.60;100.00;91495.41;4980625;28;20046;-83
2022/04/02 00:44:10;;;;;;;2.60;1.17;;;;;;;7.76;100.00;91524.50;4980563;28;20492;-83
2022/04/02 00:46:37;;;;;;;2.53;1.00;;;;;;;7.96;100.00;91559.06;4980478;28;20039;-83
2022/04/02 00:49:06;;;;;;;2.85;1.02;;;;;;;8.03;100.00;91559.66;4982391;28;20046;-83
2022/04/02 00:51:41;;;;;;;3.05;0.80;;;;;;;7.97;100.00;91551.13;4982964;28;20051;-83
2022/04/02 00:54:09;;;;;;;2.22;0.80;;;;;;;7.48;100.00;91485.25;4980260;28;20046;-83
2022/04/02 00:56:37;;;;;;;2.20;0.90;;;;;;;7.44;100.00;91479.06;4982435;28;20054;-82
2022/04/02 00:59:04;;;;;;;2.88;0.70;;;;;;;7.61;100.00;91502.06;4980734;28;20050;-83
2022/04/02 01:01:31;;;;;;;2.40;1.00;;;;;;;7.83;100.00;91540.44;4980564;28;20046;-82
2022/04/02 01:03:59;;;;;;;2.65;0.90;;;;;;;7.29;100.00;91465.06;4981920;28;20070;-85
2022/04/02 01:06:27;;;;;;;2.33;0.90;;;;;;;7.37;100.00;91492.00;4980590;28;20213;-83
2022/04/02 01:08:56;;;;;;;1.67;0.80;;;;;;;7.84;100.00;91557.38;4980271;28;20499;-83
2022/04/02 01:11:23;;;;;;;2.47;0.88;;;;;;;7.81;100.00;91552.69;4979708;28;20046;-83
2022/04/02 01:13:50;;;;;;;1.63;0.60;;;;;;;7.58;100.00;91530.63;4981547;28;20652;-83
2022/04/02 01:16:17;;;;;;;1.38;0.73;;;;;;;7.48;100.00;91523.59;4980387;28;20105;-82
2022/04/02 01:18:44;;;;;;;1.90;0.68;;;;;;;7.48;100.00;91523.59;4981679;28;20061;-83
2022/04/02 01:21:11;;;;;;;1.60;0.60;;;;;;;7.62;100.00;91544.50;4981558;28;20133;-83
2022/04/02 01:23:40;;;;;;;1.88;1.05;;;;;;;7.75;100.00;91566.41;4979749;28;20468;-83
2022/04/02 01:26:08;;;;;;;2.10;0.88;;;;;;;7.52;100.00;91547.69;4981075;28;20058;-83
2022/04/02 01:28:35;;;;;;;2.15;0.70;;;;;;;7.75;100.00;91571.53;4982153;28;20415;-83
2022/04/02 01:31:05;;;;;;;1.98;0.60;;;;;;;7.41;100.00;91539.06;4979495;28;20562;-83
2022/04/02 01:33:32;;;;;;;1.67;0.93;;;;;;;7.16;100.00;91512.13;4981968;28;20074;-83
2022/04/02 01:36:02;;;;;;;1.95;0.82;;;;;;;7.14;100.00;91496.25;4980217;28;20057;-83
2022/04/02 01:38:30;;;;;;;3.45;1.02;;;;;;;7.71;100.00;91590.88;4980088;28;20744;-84
2022/04/02 01:40:58;;;;;;;1.88;0.60;;;;;;;7.52;100.00;91587.78;4981523;28;20134;-83
2022/04/02 01:43:26;;;;;;;2.95;0.90;;;;;;;7.50;100.00;91593.09;4980552;28;20058;-83
2022/04/02 01:45:57;;;;;;;1.67;0.68;;;;;;;7.63;100.00;91620.16;4980425;28;20048;-83
2022/04/02 01:48:24;;;;;;;1.35;0.52;;;;;;;7.52;100.00;91611.56;4980541;28;20108;-83
2022/04/02 01:50:52;;;;;;;2.38;0.63;;;;;;;7.05;100.00;91546.13;4980652;28;20054;-83
2022/04/02 01:53:19;;;;;;;3.97;1.13;;;;;;;7.34;100.00;91587.75;4981571;28;20046;-83
2022/04/02 01:55:47;;;;;;;2.30;0.90;;;;;;;7.59;100.00;91627.50;4980081;28;20585;-83
2022/04/02 01:58:16;;;;;;;1.50;0.68;;;;;;;7.51;100.00;91612.56;4980280;28;20050;-83
2022/04/02 02:00:43;;;;;;;2.83;0.70;;;;;;;7.67;100.00;91625.56;4981527;28;20046;-83
2022/04/02 02:03:10;;;;;;;1.90;1.02;;;;;;;7.43;100.00;91598.38;4980989;28;20391;-83
2022/04/02 02:05:37;;;;;;;2.83;0.90;;;;;;;7.56;100.00;91622.88;4978826;28;20058;-82
2022/04/02 02:08:05;;;;;;;3.75;0.80;;;;;;;7.57;100.00;91629.53;4979400;28;20043;-81
2022/04/02 02:10:33;;;;;;;1.48;0.90;;;;;;;7.52;100.00;91623.53;4979682;28;20049;-81
2022/04/02 02:12:59;;;;;;;2.83;1.35;;;;;;;7.58;100.00;91638.72;4980979;28;20124;-80
2022/04/02 02:15:28;;;;;;;1.83;0.73;;;;;;;7.51;100.00;91627.09;4979310;28;20051;-80
2022/04/02 02:17:55;;;;;;;2.50;1.42;;;;;;;7.57;100.00;91644.84;4978567;28;20050;-80
2022/04/02 02:20:22;;;;;;;2.13;0.80;;;;;;;7.42;100.00;91637.72;4980467;28;20072;-80
2022/04/02 02:22:50;;;;;;;3.53;0.68;;;;;;;7.35;100.00;91635.28;4979910;28;20039;-80
2022/04/02 02:25:18;;;;;;;3.45;1.40;;;;;;;7.54;100.00;91660.63;4987212;28;20476;-80
2022/04/02 02:27:45;;;;;;;3.90;1.00;;;;;;;7.54;100.00;91660.63;4989999;28;20050;-80
2022/04/02 02:30:13;;;;;;;2.30;1.00;;;;;;;7.19;100.00;91615.59;4990060;28;20047;-79
2022/04/02 02:32:42;;;;;;;2.15;0.90;;;;;;;7.34;100.00;91638.84;4990091;28;20070;-80
2022/04/02 02:38:04;;;;;;;4.95;1.58;;;;;;;7.50;100.00;91672.31;4976176;28;20062;-80
2022/04/02 02:40:31;;;;;;;3.13;0.90;;;;;;;7.49;100.00;91681.78;4989728;28;20054;-80
2022/04/02 02:42:58;;;;;;;1.65;0.75;;;;;;;7.55;100.00;91676.75;4989987;28;20097;-81
2022/04/02 02:45:25;;;;;;;3.28;0.80;;;;;;;7.59;100.00;91690.63;4990036;28;20046;-80
2022/04/02 02:47:53;;;;;;;2.88;0.93;;;;;;;7.34;100.00;91649.06;4989778;28;20109;-80
2022/04/02 02:50:20;;;;;;;2.63;1.20;;;;;;;7.57;100.00;91677.28;4990642;28;20467;-80
2022/04/02 02:52:47;;;;;;;4.95;0.73;;;;;;;7.59;100.00;91681.16;4993834;28;20050;-81
2022/04/02 02:55:14;;;;;;;1.75;0.90;;;;;;;7.64;100.00;91679.72;4993592;28;20062;-81
2022/04/02 02:57:42;;;;;;;7.90;2.65;;;;;;;7.51;100.00;91670.53;4993407;28;20050;-81
2022/04/02 03:00:11;;;;;;;15.35;5.30;;;;;;;7.47;100.00;91668.47;4991978;28;20052;-81
2022/04/02 03:02:38;;;;;;;33.45;12.02;;;;;;;7.36;100.00;91653.91;4993836;28;20050;-81
2022/04/02 03:05:10;;;;;;;20.33;7.18;;;;;;;7.56;100.00;91693.63;4994190;28;20058;-81
2022/04/02 03:07:37;;;;;;;9.63;3.90;;;;;;;7.45;100.00;91657.66;4993849;28;20144;-81
2022/04/02 03:10:05;;;;;;;4.53;2.30;;;;;;;7.58;100.00;91681.38;4993375;28;20057;-81
2022/04/02 03:12:32;;;;;;;3.33;1.65;;;;;;;7.39;100.00;91656.03;4993459;28;20047;-81
2022/04/02 03:15:01;;;;;;;2.53;1.00;;;;;;;7.55;100.00;91684.41;4993062;28;20503;-81
2022/04/02 03:17:30;;;;;;;4.32;1.08;;;;;;;7.40;100.00;91672.91;4993070;28;20046;-80
2022/04/02 03:19:57;;;;;;;1.92;0.80;;;;;;;7.40;100.00;91684.91;4993436;28;20053;-80
2022/04/02 03:22:27;;;;;;;2.17;0.95;;;;;;;7.37;100.00;91686.16;4993032;28;20061;-80
2022/04/02 03:24:54;;;;;;;2.72;0.88;;;;;;;7.30;100.00;91682.94;4993418;28;20148;-80
2022/04/02 03:27:21;;;;;;;1.60;0.73;;;;;;;7.39;100.00;91684.13;4993437;28;20097;-80
2022/04/02 03:29:48;;;;;;;4.10;1.13;;;;;;;7.45;100.00;91702.91;4992993;28;20542;-80
2022/04/02 03:32:15;;;;;;;4.03;1.65;;;;;;;7.54;100.00;91711.72;4992936;28;20537;-80
2022/04/02 03:34:42;;;;;;;3.22;1.10;;;;;;;7.44;100.00;91697.00;4993291;28;20050;-80
2022/04/02 03:37:09;;;;;;;3.25;1.10;;;;;;;7.48;100.00;91700.66;4992655;28;20500;-80
2022/04/02 03:39:37;;;;;;;2.88;1.00;;;;;;;7.49;100.00;91704.75;4993083;28;20113;-80
2022/04/02 03:42:05;;;;;;;2.13;0.77;;;;;;;7.41;100.00;91691.56;4992733;28;20050;-80
2022/04/02 03:44:32;;;;;;;3.53;0.80;;;;;;;7.44;100.00;91714.09;4992973;28;20043;-81
2022/04/02 03:47:11;;;;;;;1.80;0.80;;;;;;;7.11;100.00;91665.22;4977616;28;20055;-81
2022/04/02 03:49:38;;;;;;;2.13;0.85;;;;;;;7.40;100.00;91702.81;4973508;28;20053;-81
2022/04/02 03:52:06;;;;;;;1.83;0.80;;;;;;;7.42;100.00;91701.56;4989448;28;20050;-81
2022/04/02 03:54:35;;;;;;;1.90;0.80;;;;;;;7.24;100.00;91682.06;4992794;28;20050;-81
2022/04/02 03:57:04;;;;;;;2.72;0.88;;;;;;;7.24;100.00;91676.19;4984815;28;20050;-82
2022/04/02 03:59:31;;;;;;;1.55;0.75;;;;;;;7.22;100.00;91681.50;4980636;28;20135;-81
2022/04/02 04:01:58;;;;;;;1.55;0.73;;;;;;;7.31;100.00;91697.28;4987840;28;20058;-81
2022/04/02 04:04:25;;;;;;;2.08;0.68;;;;;;;7.30;100.00;91688.03;4992517;28;20673;-80
2022/04/02 04:06:52;;;;;;;1.50;0.95;;;;;;;7.19;100.00;91684.53;4983776;28;20055;-81
2022/04/02 04:09:19;;;;;;;1.23;0.60;;;;;;;6.99;100.00;91659.38;4981252;28;20046;-81
2022/04/02 04:11:45;;;;;;;2.22;0.90;;;;;;;7.09;100.00;91674.91;4982536;28;20046;-82
2022/04/02 04:14:14;;;;;;;1.73;0.90;;;;;;;7.13;100.00;91685.44;4982532;28;20043;-82
2022/04/02 04:16:41;;;;;;;3.40;1.83;;;;;;;7.07;100.00;91680.22;4982200;28;20043;-82
2022/04/02 04:19:09;;;;;;;2.95;0.98;;;;;;;7.13;100.00;91690.53;4985420;28;20434;-81
2022/04/02 04:21:36;;;;;;;1.50;0.80;;;;;;;7.15;100.00;91696.97;4986829;28;20046;-83
2022/04/02 04:24:03;;;;;;;2.35;0.80;;;;;;;7.21;100.00;91715.72;4976811;28;20130;-82
2022/04/02 04:26:30;;;;;;;2.83;1.05;;;;;;;7.10;100.00;91704.53;4978558;28;20117;-82
2022/04/02 04:28:57;;;;;;;5.10;0.90;;;;;;;7.26;100.00;91736.25;4974775;28;20062;-82
2022/04/02 04:31:26;;;;;;;5.40;1.10;;;;;;;7.12;100.00;91710.19;4981073;28;20101;-82
2022/04/02 04:33:53;;;;;;;1.77;0.90;;;;;;;7.18;100.00;91714.38;4977268;28;20046;-82
2022/04/02 04:36:21;;;;;;;1.90;0.88;;;;;;;7.19;100.00;91712.63;4991624;28;20046;-82
2022/04/02 04:38:50;;;;;;;1.50;0.90;;;;;;;7.13;100.00;91716.06;4991556;28;20426;-81
2022/04/02 04:41:18;;;;;;;2.83;0.68;;;;;;;6.75;100.00;91652.53;4991464;28;20046;-82
2022/04/02 04:43:48;;;;;;;1.98;0.85;;;;;;;7.19;100.00;91736.38;4988425;28;20146;-82
2022/04/02 04:46:17;;;;;;;3.50;1.65;;;;;;;7.27;100.00;91744.69;4991845;28;20133;-82
2022/04/02 04:48:46;;;;;;;2.70;1.48;;;;;;;7.09;100.00;91724.19;4987330;28;20537;-82
2022/04/02 04:51:14;;;;;;;3.97;1.52;;;;;;;7.29;100.00;91743.47;4972245;28;20043;-82
2022/04/02 04:53:41;;;;;;;2.28;1.05;;;;;;;7.08;100.00;91732.06;4971676;28;20049;-82
2022/04/02 04:56:09;;;;;;;2.15;1.00;;;;;;;6.79;100.00;91686.81;4972373;28;20059;-83
2022/04/02 04:58:36;;;;;;;4.05;1.27;;;;;;;7.28;100.00;91738.59;4972436;28;20085;-83
2022/04/02 05:01:04;;;;;;;3.10;1.50;;;;;;;7.15;100.00;91719.97;4972691;28;20396;-83
2022/04/02 05:03:32;;;;;;;2.13;1.50;;;;;;;7.50;100.00;91759.19;4972228;28;20053;-83
2022/04/02 05:06:01;;;;;;;1.88;0.85;;;;;;;7.30;100.00;91731.47;4972585;28;20054;-82
2022/04/02 05:08:28;;;;;;;2.15;0.80;;;;;;;7.39;100.00;91727.56;4972157;28;20400;-82
2022/04/02 05:10:55;;;;;;;2.35;1.00;;;;;;;7.67;100.00;91749.03;4971928;28;20051;-83
2022/04/02 05:13:22;;;;;;;2.40;1.00;;;;;;;7.42;100.00;91698.22;4970489;28;20061;-82
2022/04/02 05:15:49;;;;;;;3.05;1.13;;;;;;;7.50;100.00;91710.63;4971492;28;20058;-83
2022/04/02 05:18:17;;;;;;;3.72;1.55;;;;;;;7.46;100.00;91681.44;4971481;28;20416;-83
2022/04/02 05:20:44;;;;;;;2.65;1.13;;;;;;;7.96;100.00;91756.69;4987319;28;20046;-84
2022/04/02 05:23:12;;;;;;;3.83;1.25;;;;;;;7.45;100.00;91646.69;4990591;28;20054;-83
2022/04/02 05:25:40;;;;;;;4.38;1.38;;;;;;;7.91;100.00;91700.34;4991212;28;20137;-84
2022/04/02 05:28:09;;;;;;;3.83;1.08;;;;;;;7.89;100.00;91694.69;4991414;28;20058;-83
2022/04/02 05:30:37;;;;;;;2.40;1.13;;;;;;;8.40;100.00;91752.81;4991670;28;20050;-83
2022/04/02 05:33:05;;;;;;;3.10;1.38;;;;;;;8.43;100.00;91752.34;4990832;28;20050;-83
2022/04/02 05:35:32;;;;;;;2.88;1.40;;;;;;;8.52;100.00;91765.56;4971729;28;20054;-83
2022/04/02 05:37:59;;;;;;;2.78;1.02;;;;;;;8.42;100.00;91746.44;4972097;28;20065;-83
2022/04/02 05:40:28;;;;;;;1.80;0.88;;;;;;;8.60;99.52;91760.03;4971540;28;20059;-84
2022/04/02 05:42:55;;;;;;;3.78;1.30;;;;;;;8.29;99.24;91714.25;4971455;28;20051;-84
2022/04/02 05:45:23;;;;;;;1.48;0.80;;;;;;;8.42;99.01;91707.28;4971927;28;20109;-84
2022/04/02 05:47:51;;;;;;;1.80;0.70;;;;;;;8.43;97.21;91704.50;4971491;28;20495;-84
2022/04/02 05:50:21;;;;;;;1.75;0.60;;;;;;;8.77;97.73;91729.31;4971993;28;20484;-83
2022/04/02 05:52:50;;;;;;;2.05;0.90;;;;;;;8.98;96.81;91739.81;4971376;28;20054;-83
2022/04/02 05:55:18;;;;;;;1.67;0.82;;;;;;;9.62;96.56;91801.88;4971641;28;20400;-82
2022/04/02 05:57:48;;;;;;;2.85;1.30;;;;;;;9.43;96.64;91743.22;4971788;28;20046;-83
2022/04/02 06:00:17;;;;;;;2.35;1.10;;;;;;;9.99;93.21;91792.78;4971381;28;20058;-83
2022/04/02 06:02:44;;;;;;;1.48;0.90;;;;;;;10.02;93.26;91771.78;4970893;28;20063;-83
2022/04/02 06:05:15;;;;;;;2.35;0.80;;;;;;;10.31;92.22;91788.75;4970942;28;20662;-84
2022/04/02 06:07:42;;;;;;;4.05;1.23;;;;;;;10.03;91.66;91722.03;4970533;28;20427;-84
2022/04/02 06:10:10;;;;;;;2.88;1.20;;;;;;;10.53;90.71;91771.50;4971116;28;20051;-84
2022/04/02 06:12:37;;;;;;;4.35;0.90;;;;;;;10.72;88.40;91768.56;4971194;28;20061;-83
2022/04/02 06:15:08;;;;;;;1.52;0.63;;;;;;;10.48;87.59;91761.19;4970495;28;20055;-84
2022/04/02 06:17:35;;;;;;;2.10;0.70;;;;;;;10.72;87.43;91783.97;4970776;28;20105;-84
2022/04/02 06:20:02;;;;;;;1.90;0.60;;;;;;;10.66;87.32;91752.31;4981181;28;20109;-83
2022/04/02 06:22:29;;;;;;;1.70;0.70;;;;;;;10.56;86.28;91735.06;4990176;28;20153;-84
2022/04/02 06:24:56;;;;;;;1.63;0.60;;;;;;;10.86;84.75;91761.22;5001239;28;20117;-83
2022/04/02 06:27:23;;;;;;;1.48;0.68;;;;;;;11.26;86.13;91791.78;5006718;28;20092;-84
2022/04/02 06:29:50;;;;;;;1.52;0.75;;;;;;;10.91;83.70;91720.13;4986383;28;20158;-83
2022/04/02 06:32:21;;;;;;;2.28;0.98;;;;;;;11.76;85.47;91810.28;4970595;28;20078;-86
2022/04/02 06:34:47;;;;;;;11.77;6.50;;;;;;;11.86;83.65;91788.97;4971134;28;20479;-83
2022/04/02 06:37:14;;;;;;;5.25;3.38;;;;;;;11.99;81.74;91798.00;4970850;28;20420;-84
2022/04/02 06:39:41;;;;;;;7.68;3.47;;;;;;;12.12;82.91;91794.19;4970723;28;20065;-84
2022/04/02 06:42:08;;;;;;;3.78;1.70;;;;;;;11.88;82.03;91727.72;4970865;28;20057;-84
2022/04/02 06:44:35;;;;;;;3.10;0.95;;;;;;;12.06;79.02;91729.06;4970783;28;20488;-82
2022/04/02 06:47:02;;;;;;;3.53;1.65;;;;;;;12.67;78.95;91798.91;4971168;28;20471;-83
2022/04/02 06:49:31;;;;;;;2.65;0.90;;;;;;;12.54;78.46;91807.91;4970557;28;20066;-84
2022/04/02 06:51:59;;;;;;;2.97;0.80;;;;;;;12.26;77.64;91777.25;4970998;28;20054;-84
2022/04/02 06:54:26;;;;;;;3.42;1.25;;;;;;;12.33;78.45;91777.00;4970989;28;20174;-84
2022/04/02 06:56:55;;;;;;;2.53;0.80;;;;;;;12.33;77.46;91778.78;4970991;28;20073;-84
2022/04/02 06:59:23;;;;;;;1.45;0.70;;;;;;;12.33;77.37;91753.81;4970747;28;20063;-83
2022/04/02 07:01:50;;;;;;;2.58;0.90;;;;;;;12.18;77.75;91722.91;4970832;28;20055;-84
2022/04/02 07:04:17;;;;;;;2.47;0.98;;;;;;;12.60;76.39;91772.63;4970683;28;20077;-84
2022/04/02 07:06:46;;;;;;;3.40;0.75;;;;;;;12.83;76.07;91799.69;4970379;28;20503;-84
2022/04/02 07:09:14;;;;;;;2.90;0.90;;;;;;;12.53;76.69;91741.97;4970609;28;20054;-84
2022/04/02 07:11:42;;;;;;;1.55;0.60;;;;;;;12.53;75.58;91742.75;4970286;28;20154;-84
2022/04/02 07:14:09;;;;;;;2.40;0.70;;;;;;;12.90;74.99;91796.84;4970512;28;20088;-84
2022/04/02 07:16:38;;;;;;;1.52;0.82;;;;;;;12.64;74.99;91738.38;4970533;28;20054;-83
2022/04/02 07:19:05;;;;;;;2.75;1.00;;;;;;;12.52;74.36;91727.56;4973549;28;20137;-83
2022/04/02 07:21:34;;;;;;;2.25;0.90;;;;;;;13.15;73.14;91797.88;4990049;28;20100;-83
2022/04/02 07:24:05;;;;;;;1.73;0.65;;;;;;;12.81;74.42;91745.06;4989822;28;20054;-84
2022/04/02 07:26:33;;;;;;;2.42;1.20;;;;;;;12.69;71.87;91717.00;4990388;28;20108;-84
2022/04/02 07:29:00;;;;;;;3.47;0.70;;;;;;;13.15;71.31;91777.25;4989935;28;20058;-85
2022/04/02 07:31:27;;;;;;;1.75;0.80;;;;;;;13.07;70.98;91768.22;4989753;28;20062;-84
2022/04/02 07:33:55;;;;;;;2.08;0.50;;;;;;;12.94;71.33;91739.38;4982946;28;20055;-84
2022/04/02 07:36:35;;;;;;;2.67;0.90;;;;;;;13.47;68.90;91792.41;4971269;28;20093;-83
2022/04/02 07:39:06;;;;;;;3.63;1.58;;;;;;;13.31;71.49;91767.66;4974135;28;20555;-83
2022/04/02 07:41:40;;;;;;;3.22;1.50;;;;;;;13.70;71.70;91797.25;4973764;28;20516;-84
2022/04/02 07:44:18;;;;;;;2.33;0.70;;;;;;;13.15;69.23;91718.69;4973861;28;20097;-83
2022/04/02 07:46:48;;;;;;;2.35;1.00;;;;;;;13.45;68.69;91768.66;4973917;28;20058;-84
2022/04/02 07:49:20;;;;;;;2.50;0.82;;;;;;;13.70;70.26;91795.44;4974018;28;20054;-83
2022/04/02 07:51:53;;;;;;;3.65;0.60;;;;;;;13.48;68.01;91783.63;4973902;28;20058;-83
2022/04/02 07:54:24;;;;;;;3.58;1.40;;;;;;;13.65;69.48;91779.22;4973972;28;20066;-84
2022/04/02 07:56:55;;;;;;;1.80;0.60;;;;;;;13.36;67.88;91732.31;4973755;28;20447;-83
2022/04/02 07:59:28;;;;;;;3.67;1.27;;;;;;;13.72;69.79;91764.22;4973559;28;20080;-83
2022/04/02 08:01:57;;;;;;;1.67;0.90;;;;;;;13.76;68.72;91755.66;4973570;28;20050;-83
2022/04/02 08:04:25;;;;;;;2.00;0.60;;;;;;;13.78;69.23;91727.03;4973534;28;20574;-82
2022/04/02 08:06:53;;;;;;;2.45;0.52;;;;;;;13.97;67.02;91753.00;4973260;28;20053;-83
2022/04/02 08:09:23;;;;;;;1.85;0.63;;;;;;;14.13;67.28;91776.91;4973167;28;20420;-83
2022/04/02 08:11:50;;;;;;;2.35;0.75;;;;;;;13.85;66.06;91727.50;4972577;28;20086;-83
2022/04/02 08:14:20;;;;;;;4.38;0.70;;;;;;;14.06;65.72;91739.53;4972924;28;20059;-83
2022/04/02 08:16:50;;;;;;;1.70;0.88;;;;;;;14.16;65.21;91745.41;4972748;28;20153;-83
2022/04/02 08:19:22;;;;;;;2.13;0.63;;;;;;;14.36;65.28;91751.50;4976724;28;20053;-83
2022/04/02 08:21:49;;;;;;;2.08;0.90;;;;;;;14.02;66.20;91697.97;4991690;28;20109;-83
2022/04/02 08:24:16;;;;;;;1.13;0.57;;;;;;;13.81;65.57;91656.03;4992503;28;20054;-83
2022/04/02 08:26:56;;;;;;;1.70;0.73;;;;;;;14.65;66.86;91760.31;4992760;28;20407;-82
2022/04/02 08:29:40;;;;;;;1.60;0.77;;;;;;;14.68;65.05;91757.97;4992568;28;20054;-82
2022/04/02 08:32:22;;;;;;;1.33;0.35;;;;;;;14.37;63.06;91729.00;4992291;28;20125;-83
2022/04/02 08:35:07;;;;;;;1.85;1.05;;;;;;;14.20;63.79;91712.06;4991971;28;20050;-83
2022/04/02 08:38:05;;;;;;;3.10;1.10;;;;;;;14.59;63.76;91763.97;4990641;28;20050;-83
2022/04/02 08:40:57;;;;;;;2.30;0.85;;;;;;;14.08;62.79;91706.47;4988781;28;20061;-82
2022/04/02 08:44:00;;;;;;;1.42;0.70;;;;;;;14.09;61.82;91749.31;4992061;28;20488;-83
2022/04/02 08:46:52;;;;;;;1.90;0.85;;;;;;;13.71;64.98;91711.81;4991540;28;20054;-82
2022/04/02 08:49:24;;;;;;;4.50;1.27;;;;;;;14.40;64.10;91798.22;4992465;28;20132;-83
2022/04/02 08:52:16;;;;;;;2.50;1.00;;;;;;;14.16;62.32;91789.31;4992168;28;20050;-83
2022/04/02 08:54:56;;;;;;;2.67;1.23;;;;;;;14.01;64.27;91781.63;4991688;28;20050;-82
2022/04/02 08:57:29;;;;;;;0.95;0.60;;;;;;;13.92;63.90;91791.75;4991694;28;20054;-83
2022/04/02 09:00:05;;;;;;;2.72;1.00;;;;;;;13.86;63.18;91779.91;4991521;28;20137;-83
2022/04/02 09:03:09;;;;;;;3.03;0.98;;;;;;;13.66;65.20;91742.81;4991203;28;20054;-83
2022/04/02 09:05:54;;;;;;;2.33;0.90;;;;;;;14.19;64.95;91762.19;4979671;28;20141;-83
2022/04/02 09:09:05;;;;;;;3.00;0.88;;;;;;;14.60;65.56;91774.06;4991637;28;20054;-83
2022/04/02 09:11:53;;;;;;;3.13;0.93;;;;;;;14.74;64.06;91787.13;4971724;28;20388;-83
2022/04/02 09:14:38;;;;;;;2.90;1.10;;;;;;;14.63;63.59;91775.34;4991749;28;20050;-83
2022/04/02 09:17:30;;;;;;;3.53;1.60;;;;;;;14.00;62.11;91702.63;4993039;28;20050;-82
2022/04/02 09:20:13;;;;;;;3.83;1.05;;;;;;;14.09;60.55;91726.88;4990705;28;20469;-82
2022/04/02 09:23:05;;;;;;;6.97;1.10;;;;;;;14.17;61.37;91720.38;4972296;28;20492;-84
2022/04/02 09:26:23;;;;;;;2.53;0.90;;;;;;;14.08;59.25;91734.88;4972257;28;20047;-83
2022/04/02 09:29:14;;;;;;;3.22;1.38;;;;;;;14.30;58.25;91752.53;4971664;28;20055;-83
2022/04/02 09:32:25;;;;;;;3.22;1.42;;;;;;;14.59;60.44;91767.34;4971746;28;20051;-83
2022/04/02 09:35:37;;;;;;;2.38;1.15;;;;;;;14.54;58.22;91767.38;4971613;28;20058;-83
2022/04/02 09:38:27;;;;;;;2.78;0.80;;;;;;;14.28;58.38;91752.03;4979405;28;20050;-82
2022/04/02 09:41:04;;;;;;;2.60;1.00;;;;;;;13.87;59.59;91678.19;4988935;28;20058;-82
2022/04/02 09:43:38;;;;;;;3.28;1.65;;;;;;;14.07;59.51;91694.59;4990367;28;20515;-83
2022/04/02 09:46:20;;;;;;;2.92;1.20;;;;;;;14.50;58.95;91762.00;4990208;28;20050;-82
2022/04/02 09:48:54;;;;;;;2.42;1.38;;;;;;;14.88;59.17;91796.88;4990312;28;20497;-83
2022/04/02 09:51:31;;;;;;;3.83;1.30;;;;;;;14.80;59.66;91741.34;4990217;28;20058;-82
2022/04/02 09:54:04;;;;;;;1.88;1.10;;;;;;;14.62;58.11;91666.00;4990175;28;20077;-82
2022/04/02 09:56:35;;;;;;;3.03;1.52;;;;;;;15.30;57.27;91725.63;4990213;28;20419;-82
2022/04/02 09:59:05;;;;;;;3.20;1.33;;;;;;;15.67;56.75;91744.13;4989507;28;20451;-83
2022/04/02 10:01:38;;;;;;;1.73;1.23;;;;;;;15.65;53.26;91725.50;4988950;28;20482;-83
2022/04/02 10:04:30;;;;;;;2.88;1.10;;;;;;;16.09;53.85;91736.63;4982162;28;20411;-83
2022/04/02 10:06:59;;;;;;;2.28;0.52;;;;;;;15.90;49.21;91680.41;4985149;28;20059;-82
2022/04/02 10:09:31;;;;;;;2.47;0.90;;;;;;;16.12;48.45;91751.59;4970469;28;20129;-82
2022/04/02 10:12:00;;;;;;;1.45;0.70;;;;;;;16.23;49.27;91760.03;4970916;28;20082;-83
2022/04/02 10:14:28;;;;;;;5.78;1.17;;;;;;;16.30;49.46;91754.50;4970379;28;20057;-80
2022/04/02 10:16:58;;;;;;;1.58;0.70;;;;;;;15.93;50.65;91673.16;4970351;28;20086;-83
2022/04/02 10:19:29;;;;;;;3.15;0.70;;;;;;;16.41;49.56;91732.56;4976442;28;20054;-83
2022/04/02 10:22:02;;;;;;;1.90;0.70;;;;;;;16.05;49.44;91676.06;4990574;28;20454;-82
2022/04/02 10:24:36;;;;;;;1.73;0.60;;;;;;;16.30;48.03;91705.25;5006656;28;20064;-83
2022/04/02 10:27:05;;;;;;;3.13;0.80;;;;;;;16.73;47.86;91739.84;5029516;28;20068;-83
2022/04/02 10:29:40;;;;;;;3.63;0.85;;;;;;;16.46;47.79;91684.28;5029213;28;20053;-83
2022/04/02 10:32:25;;;;;;;2.88;0.75;;;;;;;16.80;47.25;91720.28;5029635;28;20057;-83
2022/04/02 10:34:57;;;;;;;5.13;2.03;;;;;;;16.76;45.27;91697.81;5024931;28;20482;-83
2022/04/02 10:37:29;;;;;;;3.25;1.83;;;;;;;16.85;46.29;91723.84;5029671;28;20144;-83
2022/04/02 10:40:00;;;;;;;3.10;0.65;;;;;;;16.14;45.38;91614.03;5029352;28;20053;-84
2022/04/02 10:42:33;;;;;;;5.10;1.20;;;;;;;16.67;46.30;91653.63;5029380;28;20049;-83
2022/04/02 10:45:02;;;;;;;4.32;1.27;;;;;;;17.04;45.10;91700.47;5029271;28;20045;-83
2022/04/02 10:47:31;;;;;;;69.70;43.00;;;;;;;16.69;43.90;91657.47;5019455;28;20065;-85
2022/04/02 10:50:03;;;;;;;2.65;1.70;;;;;;;16.72;43.80;91681.28;5007765;28;20518;-83
2022/04/02 10:52:34;;;;;;;2.00;1.10;;;;;;;16.34;45.49;91638.09;5008988;28;20058;-84
2022/04/02 10:55:02;;;;;;;6.75;1.70;;;;;;;16.28;45.94;91658.91;5009523;28;20137;-83
2022/04/02 10:57:30;;;;;;;1.80;0.80;;;;;;;16.40;44.93;91705.09;5009378;28;20060;-83
2022/04/02 11:00:02;;;;;;;5.13;2.30;;;;;;;15.53;44.97;91629.38;5009957;28;20518;-84
2022/04/02 11:02:41;;;;;;;4.65;1.40;;;;;;;16.05;45.21;91712.34;5009916;28;20062;-83
2022/04/02 11:05:09;;;;;;;3.05;0.90;;;;;;;15.19;45.26;91644.03;5009431;28;20046;-83
2022/04/02 11:07:42;;;;;;;3.08;0.90;;;;;;;15.14;44.47;91706.91;5009722;28;20396;-83
2022/04/02 11:10:13;;;;;;;2.58;0.88;;;;;;;14.85;44.83;91725.81;5009679;28;20078;-84
2022/04/02 11:12:44;;;;;;;5.57;1.25;;;;;;;13.88;48.01;91628.88;5012249;28;20729;-84
2022/04/02 11:15:14;;;;;;;1.65;1.00;;;;;;;14.07;50.19;91705.69;5013314;28;20049;-84
2022/04/02 11:17:43;;;;;;;5.57;1.58;;;;;;;13.80;53.50;91712.03;5013568;28;20050;-84
2022/04/02 11:20:12;;;;;;;15.48;7.53;;;;;;;13.61;52.34;91712.66;5024791;28;20100;-84
2022/04/02 11:23:03;;;;;;;3.30;2.05;;;;;;;12.95;53.86;91686.81;5033065;28;20077;-84
2022/04/02 11:25:35;;;;;;;6.05;3.13;;;;;;;12.66;58.09;91695.09;5032789;28;20099;-85
2022/04/02 11:28:10;;;;;;;2.20;1.30;;;;;;;12.10;63.51;91742.19;5032806;28;20073;-83
2022/04/02 11:30:43;;;;;;;1.83;1.00;;;;;;;12.05;68.06;91773.84;5032907;28;20067;-84
2022/04/02 11:33:14;;;;;;;4.45;1.70;;;;;;;11.60;70.96;91740.78;5031176;28;20072;-84
2022/04/02 11:36:06;;;;;;;7.40;3.20;;;;;;;10.96;74.51;91621.75;5013289;28;20049;-84
2022/04/02 11:38:42;;;;;;;4.72;3.10;;;;;;;11.69;76.18;91732.56;5013093;28;20054;-84
2022/04/02 11:41:16;;;;;;;4.85;1.60;;;;;;;11.13;75.66;91687.59;5012843;28;20136;-84
2022/04/02 11:43:45;;;;;;;4.03;2.60;;;;;;;11.07;79.61;91723.56;5012860;28;20479;-84
2022/04/02 11:46:13;;;;;;;2.65;1.05;;;;;;;11.27;84.34;91809.53;5012953;28;20529;-83
2022/04/02 11:48:51;;;;;;;4.90;1.45;;;;;;;10.54;93.79;91738.88;5012584;28;20065;-83
2022/04/02 11:51:20;;;;;;;6.57;2.30;;;;;;;10.76;93.34;91822.78;5012921;28;20060;-82
2022/04/02 11:54:04;;;;;;;6.32;1.98;;;;;;;10.14;99.14;91756.25;5012862;28;20057;-83
2022/04/02 11:56:32;;;;;;;5.03;1.50;;;;;;;10.29;99.93;91799.25;5009366;28;20517;-83